createdAt,value
2022-12-27T00:01:38.705Z,68.09
2022-12-27T00:04:06.180Z,69.64
2022-12-27T00:06:33.460Z,64.30
2022-12-27T00:09:01.527Z,65.57
2022-12-27T00:11:30.079Z,71.06
2022-12-27T00:14:08.610Z,68.95
2022-12-27T00:16:36.140Z,69.31
2022-12-27T00:19:03.842Z,66.87
2022-12-27T00:21:31.397Z,71.80
2022-12-27T00:24:00.185Z,69.19
2022-12-27T00:26:31.484Z,70.87
2022-12-27T00:28:59.431Z,70.17
2022-12-27T00:31:29.948Z,70.30
2022-12-27T00:33:59.809Z,67.10
2022-12-27T00:36:29.396Z,70.99
2022-12-27T00:38:58.327Z,70.63
2022-12-27T00:41:25.716Z,72.77
2022-12-27T00:43:53.063Z,72.88
2022-12-27T00:46:20.364Z,67.42
2022-12-27T00:48:47.892Z,72.29
2022-12-27T00:51:18.155Z,70.37
2022-12-27T00:53:45.995Z,73.38
2022-12-27T00:56:22.703Z,72.03
2022-12-27T00:58:58.181Z,69.86
2022-12-27T01:01:27.679Z,68.88
2022-12-27T01:03:56.769Z,72.20
2022-12-27T01:06:28.970Z,69.06
2022-12-27T01:08:57.079Z,70.16
2022-12-27T01:11:26.135Z,71.88
2022-12-27T01:13:56.073Z,69.80
2022-12-27T01:16:24.649Z,72.77
2022-12-27T01:18:52.312Z,69.45
2022-12-27T01:21:21.149Z,68.53
2022-12-27T01:23:49.094Z,72.44
2022-12-27T01:26:21.500Z,72.29
2022-12-27T01:28:49.664Z,72.30
2022-12-27T01:31:19.199Z,71.68
2022-12-27T01:33:47.079Z,72.28
2022-12-27T01:36:22.471Z,72.50
2022-12-27T01:38:52.769Z,71.25
2022-12-27T01:41:55.952Z,69.19
2022-12-27T01:44:39.657Z,72.88
2022-12-27T01:47:45.854Z,67.92
2022-12-27T01:50:48.088Z,72.31
2022-12-27T01:53:23.732Z,71.81
2022-12-27T01:55:56.299Z,73.04
2022-12-27T01:58:33.546Z,72.17
2022-12-27T02:01:01.600Z,70.44
2022-12-27T02:03:34.583Z,70.85
2022-12-27T02:06:05.560Z,70.10
2022-12-27T02:09:02.209Z,72.75
2022-12-27T02:11:50.534Z,72.98
2022-12-27T02:14:33.405Z,72.19
2022-12-27T02:17:03.947Z,68.76
2022-12-27T02:19:40.276Z,72.97
2022-12-27T02:22:10.108Z,73.88
2022-12-27T02:24:57.124Z,73.33
2022-12-27T02:28:06.031Z,69.71
2022-12-27T02:30:33.776Z,72.69
2022-12-27T02:33:04.867Z,71.29
2022-12-27T02:35:36.945Z,70.10
2022-12-27T02:38:04.146Z,72.55
2022-12-27T02:40:50.740Z,73.52
2022-12-27T02:43:36.535Z,70.34
2022-12-27T02:46:38.297Z,70.19
2022-12-27T02:49:42.811Z,72.89
2022-12-27T02:52:31.473Z,70.01
2022-12-27T02:55:23.580Z,71.32
2022-12-27T02:58:14.046Z,73.60
2022-12-27T03:01:07.520Z,74.71
2022-12-27T03:03:52.493Z,73.36
2022-12-27T03:06:41.372Z,71.89
2022-12-27T03:09:45.797Z,74.07
2022-12-27T03:12:49.421Z,72.36
2022-12-27T03:15:58.128Z,67.76
2022-12-27T03:18:28.292Z,69.17
2022-12-27T03:21:16.308Z,69.87
2022-12-27T03:24:03.844Z,70.46
2022-12-27T03:26:34.155Z,74.98
2022-12-27T03:29:20.364Z,73.71
2022-12-27T03:32:10.465Z,75.51
2022-12-27T03:34:42.980Z,73.94
2022-12-27T03:37:31.747Z,72.22
2022-12-27T03:40:12.398Z,72.04
2022-12-27T03:43:05.388Z,74.32
2022-12-27T03:45:57.807Z,73.44
2022-12-27T03:48:26.772Z,73.28
2022-12-27T03:50:55.184Z,73.61
2022-12-27T03:53:42.519Z,71.79
2022-12-27T03:56:10.215Z,73.62
2022-12-27T03:58:37.541Z,73.29
2022-12-27T04:01:04.888Z,71.21
2022-12-27T04:03:32.184Z,71.84
2022-12-27T04:05:59.517Z,69.64
2022-12-27T04:08:45.688Z,71.43
2022-12-27T04:11:31.375Z,75.84
2022-12-27T04:14:17.310Z,73.13
2022-12-27T04:17:03.241Z,73.57
2022-12-27T04:19:49.171Z,73.76
2022-12-27T04:22:35.107Z,74.06
2022-12-27T04:25:21.385Z,73.06
2022-12-27T04:28:07.143Z,73.14
2022-12-27T04:30:52.965Z,74.14
2022-12-27T04:33:39.051Z,72.96
2022-12-27T04:36:07.254Z,73.05
2022-12-27T04:38:34.489Z,71.02
2022-12-27T04:41:19.998Z,75.65
2022-12-27T04:44:05.794Z,72.40
2022-12-27T04:46:52.021Z,73.36
2022-12-27T04:49:42.790Z,74.91
2022-12-27T04:52:37.495Z,73.96
2022-12-27T04:55:19.157Z,74.16
2022-12-27T04:57:46.565Z,72.84
2022-12-27T05:00:33.603Z,73.70
2022-12-27T05:03:02.751Z,73.23
2022-12-27T05:05:30.138Z,74.14
2022-12-27T05:08:17.072Z,72.04
2022-12-27T05:11:02.971Z,69.88
2022-12-27T05:13:48.922Z,74.66
2022-12-27T05:16:16.353Z,69.26
2022-12-27T05:18:43.737Z,73.31
2022-12-27T05:21:11.040Z,74.55
2022-12-27T05:24:03.394Z,74.32
2022-12-27T05:26:33.471Z,74.59
2022-12-27T05:29:01.056Z,74.59
2022-12-27T05:31:29.832Z,74.61
2022-12-27T05:33:57.968Z,73.26
2022-12-27T05:36:25.628Z,74.81
2022-12-27T05:38:52.933Z,73.24
2022-12-27T05:41:20.412Z,70.30
2022-12-27T05:43:47.987Z,72.55
2022-12-27T05:46:18.098Z,72.37
2022-12-27T05:48:45.528Z,73.34
2022-12-27T05:51:16.133Z,73.16
2022-12-27T05:53:43.690Z,71.33
2022-12-27T05:56:16.414Z,71.66
2022-12-27T05:58:43.941Z,72.27
2022-12-27T06:01:13.634Z,73.40
2022-12-27T06:03:40.984Z,73.12
2022-12-27T06:06:08.731Z,72.40
2022-12-27T06:08:36.565Z,71.01
2022-12-27T06:11:10.437Z,72.74
2022-12-27T06:13:38.446Z,73.50
2022-12-27T06:16:07.271Z,73.31
2022-12-27T06:18:36.491Z,72.26
2022-12-27T06:21:13.496Z,72.23
2022-12-27T06:23:42.167Z,71.83
2022-12-27T06:26:13.047Z,71.41
2022-12-27T06:28:40.484Z,71.63
2022-12-27T06:31:10.376Z,71.46
2022-12-27T06:33:37.657Z,71.76
2022-12-27T06:36:10.140Z,70.89
2022-12-27T06:38:37.649Z,73.33
2022-12-27T06:41:06.801Z,72.72
2022-12-27T06:43:34.348Z,72.80
2022-12-27T06:46:06.112Z,72.09
2022-12-27T06:48:34.017Z,70.63
2022-12-27T06:51:04.429Z,70.95
2022-12-27T06:53:31.825Z,71.33
2022-12-27T06:56:06.981Z,72.00
2022-12-27T06:58:35.121Z,72.48
2022-12-27T07:01:09.322Z,73.77
2022-12-27T07:03:38.098Z,72.34
2022-12-27T07:06:08.354Z,73.18
2022-12-27T07:08:36.455Z,71.69
2022-12-27T07:11:06.607Z,71.04
2022-12-27T07:13:35.794Z,71.44
2022-12-27T07:16:05.667Z,73.55
2022-12-27T07:18:33.025Z,73.81
2022-12-27T07:21:06.833Z,72.87
2022-12-27T07:23:34.377Z,75.01
2022-12-27T07:26:06.193Z,75.08
2022-12-27T07:28:34.017Z,73.29
2022-12-27T07:31:09.176Z,69.79
2022-12-27T07:33:37.419Z,67.38
2022-12-27T07:36:06.516Z,73.10
2022-12-27T07:38:33.804Z,74.70
2022-12-27T07:41:02.223Z,74.72
2022-12-27T07:43:31.126Z,69.08
2022-12-27T07:46:05.569Z,72.26
2022-12-27T07:48:33.112Z,75.75
2022-12-27T07:51:00.531Z,71.55
2022-12-27T07:53:29.344Z,75.02
2022-12-27T07:55:56.969Z,75.58
2022-12-27T07:58:25.570Z,79.87
2022-12-27T08:00:53.067Z,73.35
2022-12-27T08:03:20.652Z,78.56
2022-12-27T08:05:49.644Z,79.39
2022-12-27T08:08:18.447Z,75.66
2022-12-27T08:10:45.707Z,77.14
2022-12-27T08:13:13.082Z,74.54
2022-12-27T08:15:41.867Z,71.50
2022-12-27T08:18:09.609Z,70.18
2022-12-27T08:20:37.258Z,69.41
2022-12-27T08:23:04.745Z,68.56
2022-12-27T08:25:34.207Z,68.36
2022-12-27T08:28:05.857Z,67.87
2022-12-27T08:30:33.358Z,67.66
2022-12-27T08:33:01.963Z,67.35
2022-12-27T08:38:16.704Z,66.56
2022-12-27T08:40:45.303Z,67.17
2022-12-27T08:43:13.012Z,66.27
2022-12-27T08:45:41.074Z,66.46
2022-12-27T08:48:08.431Z,66.72
2022-12-27T08:50:35.991Z,65.98
2022-12-27T08:53:04.807Z,65.43
2022-12-27T08:55:32.714Z,65.95
2022-12-27T08:58:10.539Z,66.15
2022-12-27T09:00:41.149Z,65.31
2022-12-27T09:03:09.428Z,65.19
2022-12-27T09:05:41.724Z,67.88
2022-12-27T09:08:10.570Z,67.25
2022-12-27T09:10:38.842Z,67.31
2022-12-27T09:13:06.371Z,67.46
2022-12-27T09:15:33.750Z,67.34
2022-12-27T09:18:03.128Z,68.10
2022-12-27T09:20:30.415Z,67.15
2022-12-27T09:22:58.800Z,64.30
2022-12-27T09:25:26.100Z,69.27
2022-12-27T09:27:54.729Z,70.25
2022-12-27T09:30:22.352Z,67.56
2022-12-27T09:32:49.642Z,70.91
2022-12-27T09:35:17.005Z,69.21
2022-12-27T09:37:44.282Z,74.14
2022-12-27T09:40:15.854Z,69.19
2022-12-27T09:43:02.963Z,71.12
2022-12-27T09:45:51.994Z,72.42
2022-12-27T09:48:33.455Z,68.94
2022-12-27T09:51:14.696Z,68.90
2022-12-27T09:54:14.460Z,73.34
2022-12-27T09:57:17.638Z,72.13
2022-12-27T09:59:33.418Z,69.27
2022-12-27T10:02:00.864Z,72.82
2022-12-27T10:05:00.902Z,72.61
2022-12-27T10:07:27.576Z,71.35
2022-12-27T10:10:17.675Z,71.18
2022-12-27T10:13:10.535Z,68.60
2022-12-27T10:16:01.065Z,68.52
2022-12-27T10:18:34.408Z,67.89
2022-12-27T10:21:16.388Z,71.34
2022-12-27T10:23:45.687Z,71.69
2022-12-27T10:26:14.477Z,69.61
2022-12-27T10:28:44.435Z,69.02
2022-12-27T10:31:18.095Z,69.57
2022-12-27T10:33:49.938Z,71.20
2022-12-27T10:36:21.460Z,70.72
2022-12-27T10:38:51.948Z,72.24
2022-12-27T10:41:31.450Z,67.92
2022-12-27T10:44:00.155Z,70.92
2022-12-27T10:46:33.289Z,70.65
2022-12-27T10:49:22.639Z,69.93
2022-12-27T10:51:51.842Z,67.11
2022-12-27T10:54:23.945Z,71.32
2022-12-27T10:56:51.828Z,71.06
2022-12-27T10:59:28.940Z,67.52
2022-12-27T11:02:02.409Z,67.91
2022-12-27T11:04:31.029Z,70.57
2022-12-27T11:07:04.666Z,69.13
2022-12-27T11:09:38.439Z,68.27
2022-12-27T11:12:33.101Z,68.23
2022-12-27T11:15:06.361Z,67.52
2022-12-27T11:17:39.416Z,65.45
2022-12-27T11:20:23.213Z,65.14
2022-12-27T11:22:54.086Z,66.10
2022-12-27T11:25:21.826Z,65.63
2022-12-27T11:27:55.880Z,64.07
2022-12-27T11:30:40.064Z,61.62
2022-12-27T11:33:33.285Z,61.15
2022-12-27T11:36:00.999Z,64.66
2022-12-27T11:38:30.926Z,63.66
2022-12-27T11:41:08.237Z,63.68
2022-12-27T11:43:45.636Z,62.46
2022-12-27T11:46:35.521Z,61.21
2022-12-27T11:49:06.945Z,61.97
2022-12-27T11:51:55.750Z,60.98
2022-12-27T11:54:44.728Z,60.65
2022-12-27T11:57:27.712Z,60.53
2022-12-27T12:00:23.468Z,59.65
2022-12-27T12:02:58.787Z,59.87
2022-12-27T12:05:54.071Z,59.62
2022-12-27T12:08:50.597Z,58.12
2022-12-27T12:11:34.643Z,57.93
2022-12-27T12:15:04.268Z,58.53
2022-12-27T12:17:41.176Z,58.11
2022-12-27T12:20:17.836Z,59.47
2022-12-27T12:23:13.835Z,57.04
2022-12-27T12:25:59.649Z,56.89
2022-12-27T12:28:58.133Z,58.72
2022-12-27T12:31:41.158Z,58.58
2022-12-27T12:34:24.803Z,58.33
2022-12-27T12:37:24.444Z,58.10
2022-12-27T12:39:56.163Z,58.84
2022-12-27T12:42:56.841Z,58.14
2022-12-27T12:45:37.122Z,57.95
2022-12-27T12:48:22.858Z,57.00
2022-12-27T12:51:17.614Z,57.90
2022-12-27T12:53:51.390Z,57.91
2022-12-27T12:56:30.929Z,57.24
2022-12-27T12:59:07.540Z,58.04
2022-12-27T13:02:09.039Z,57.67
2022-12-27T13:04:46.017Z,56.63
2022-12-27T13:07:16.960Z,56.40
2022-12-27T13:09:56.415Z,58.26
2022-12-27T13:12:37.747Z,58.11
2022-12-27T13:15:11.048Z,57.72
2022-12-27T13:18:02.789Z,57.87
2022-12-27T13:20:57.270Z,57.25
2022-12-27T13:23:46.962Z,56.73
2022-12-27T13:26:39.043Z,57.44
2022-12-27T13:29:40.406Z,57.26
2022-12-27T13:32:56.021Z,57.19
2022-12-27T13:36:02.120Z,56.73
2022-12-27T13:38:35.514Z,56.72
2022-12-27T13:41:10.757Z,56.42
2022-12-27T13:44:06.957Z,56.44
2022-12-27T13:46:43.336Z,57.04
2022-12-27T13:49:31.850Z,56.87
2022-12-27T13:52:06.482Z,56.20
2022-12-27T13:54:48.886Z,56.59
2022-12-27T13:57:40.685Z,55.57
2022-12-27T14:00:17.864Z,56.40
2022-12-27T14:03:07.022Z,56.28
2022-12-27T14:06:05.299Z,55.85
2022-12-27T14:09:10.314Z,56.51
2022-12-27T14:11:46.380Z,56.20
2022-12-27T14:14:16.593Z,56.87
2022-12-27T14:17:02.391Z,56.73
2022-12-27T14:19:52.575Z,57.85
2022-12-27T14:22:55.222Z,57.49
2022-12-27T14:25:30.537Z,57.68
2022-12-27T14:28:03.975Z,57.65
2022-12-27T14:30:49.505Z,57.20
2022-12-27T14:33:35.726Z,59.03
2022-12-27T14:36:21.889Z,58.12
2022-12-27T14:38:58.366Z,58.30
2022-12-27T14:41:45.662Z,58.73
2022-12-27T14:44:34.727Z,63.00
2022-12-27T14:47:25.469Z,62.67
2022-12-27T14:50:04.881Z,62.25
2022-12-27T14:53:00.221Z,62.25
2022-12-27T14:55:40.993Z,61.79
2022-12-27T14:58:24.970Z,62.94
2022-12-27T15:01:20.152Z,63.51
2022-12-27T15:04:07.795Z,62.33
2022-12-27T15:07:02.707Z,63.14
2022-12-27T15:09:48.384Z,63.25
2022-12-27T15:12:44.725Z,64.42
2022-12-27T15:15:43.956Z,64.24
2022-12-27T15:18:36.184Z,63.60
2022-12-27T15:21:41.619Z,64.01
2022-12-27T15:24:31.755Z,64.00
2022-12-27T15:27:28.210Z,64.59
2022-12-27T15:30:25.311Z,64.65
2022-12-27T15:32:58.886Z,64.03
2022-12-27T15:35:35.234Z,64.34
2022-12-27T15:38:15.018Z,64.06
2022-12-27T15:40:56.403Z,63.07
2022-12-27T15:44:01.412Z,63.68
2022-12-27T15:46:49.983Z,63.42
2022-12-27T15:49:36.471Z,64.01
2022-12-27T15:52:16.499Z,65.75
2022-12-27T15:54:53.901Z,65.41
2022-12-27T15:57:40.036Z,65.61
2022-12-27T16:00:33.892Z,65.77
2022-12-27T16:03:04.275Z,65.78
2022-12-27T16:05:42.647Z,66.18
2022-12-27T16:08:09.810Z,66.85
2022-12-27T16:10:40.151Z,67.12
2022-12-27T16:13:13.072Z,67.27
2022-12-27T16:15:44.629Z,66.77
2022-12-27T16:18:23.956Z,66.48
2022-12-27T16:21:10.261Z,66.68
2022-12-27T16:23:50.230Z,65.71
2022-12-27T16:26:21.079Z,66.67
2022-12-27T16:28:54.344Z,66.10
2022-12-27T16:31:27.231Z,66.05
2022-12-27T16:33:56.790Z,65.81
2022-12-27T16:36:32.455Z,66.29
2022-12-27T16:39:18.756Z,67.21
2022-12-27T16:41:55.011Z,68.21
2022-12-27T16:44:25.215Z,67.93
2022-12-27T16:47:06.979Z,69.52
2022-12-27T16:49:43.293Z,69.33
2022-12-27T16:52:14.858Z,69.69
2022-12-27T16:54:55.524Z,71.04
2022-12-27T16:57:26.263Z,70.62
2022-12-27T17:00:05.779Z,70.76
2022-12-27T17:02:46.016Z,71.75
2022-12-27T17:05:16.354Z,71.71
2022-12-27T17:07:52.751Z,71.57
2022-12-27T17:10:32.688Z,71.92
2022-12-27T17:13:11.074Z,70.88
2022-12-27T17:15:54.676Z,71.30
2022-12-27T17:18:31.469Z,71.32
2022-12-27T17:21:05.405Z,71.85
2022-12-27T17:23:38.712Z,71.22
2022-12-27T17:26:21.045Z,70.68
2022-12-27T17:29:08.569Z,73.35
2022-12-27T17:32:04.865Z,73.02
2022-12-27T17:34:42.839Z,71.81
2022-12-27T17:37:23.475Z,71.44
2022-12-27T17:40:06.547Z,72.14
2022-12-27T17:43:13.115Z,71.96
2022-12-27T17:45:47.393Z,74.36
2022-12-27T17:48:40.836Z,72.93
2022-12-27T17:51:15.151Z,74.59
2022-12-27T17:54:08.808Z,76.21
2022-12-27T17:57:00.904Z,74.47
2022-12-27T17:59:29.823Z,75.61
2022-12-27T18:02:06.092Z,74.83
2022-12-27T18:04:38.606Z,75.74
2022-12-27T18:07:08.175Z,74.80
2022-12-27T18:09:53.234Z,72.99
2022-12-27T18:12:23.672Z,73.19
2022-12-27T18:14:58.308Z,74.58
2022-12-27T18:17:37.751Z,74.40
2022-12-27T18:20:30.092Z,75.97
2022-12-27T18:23:00.615Z,74.24
2022-12-27T18:25:29.140Z,73.26
2022-12-27T18:28:27.228Z,73.78
2022-12-27T18:31:19.842Z,75.67
2022-12-27T18:33:51.674Z,74.35
2022-12-27T18:36:23.906Z,74.26
2022-12-27T18:39:24.154Z,73.97
2022-12-27T18:41:51.965Z,72.62
2022-12-27T18:44:27.732Z,73.60
2022-12-27T18:46:58.178Z,75.13
2022-12-27T18:49:35.468Z,73.90
2022-12-27T18:52:12.886Z,75.09
2022-12-27T18:54:40.311Z,74.59
2022-12-27T18:57:35.260Z,75.24
2022-12-27T19:00:25.224Z,74.92
2022-12-27T19:02:54.745Z,73.34
2022-12-27T19:05:25.783Z,75.57
2022-12-27T19:07:57.628Z,76.34
2022-12-27T19:10:26.973Z,74.81
2022-12-27T19:12:55.527Z,76.69
2022-12-27T19:15:29.327Z,75.76
2022-12-27T19:18:00.633Z,76.34
2022-12-27T19:20:30.256Z,77.54
2022-12-27T19:23:00.688Z,76.82
2022-12-27T19:25:35.814Z,74.31
2022-12-27T19:28:09.458Z,76.82
2022-12-27T19:30:41.680Z,76.53
2022-12-27T19:33:25.517Z,77.23
2022-12-27T19:35:53.461Z,77.08
2022-12-27T19:38:23.555Z,77.19
2022-12-27T19:40:55.411Z,78.13
2022-12-27T19:43:26.434Z,76.15
2022-12-27T19:45:53.764Z,75.78
2022-12-27T19:48:21.063Z,76.21
2022-12-27T19:50:51.925Z,74.52
2022-12-27T19:53:29.627Z,75.21
2022-12-27T19:55:58.371Z,76.84
2022-12-27T19:58:27.608Z,79.54
2022-12-27T20:00:55.640Z,78.25
2022-12-27T20:03:23.977Z,81.21
2022-12-27T20:06:11.747Z,78.06
2022-12-27T20:08:45.461Z,79.73
2022-12-27T20:11:21.832Z,81.32
2022-12-27T20:13:49.957Z,80.48
2022-12-27T20:16:18.736Z,80.94
2022-12-27T20:18:47.041Z,80.22
2022-12-27T20:21:19.523Z,77.39
2022-12-27T20:23:47.288Z,78.27
2022-12-27T20:26:18.157Z,75.88
2022-12-27T20:28:46.002Z,79.77
2022-12-27T20:31:14.888Z,80.46
2022-12-27T20:33:42.446Z,79.04
2022-12-27T20:36:10.282Z,78.33
2022-12-27T20:38:39.136Z,77.86
2022-12-27T20:41:15.362Z,79.89
2022-12-27T20:43:42.780Z,79.73
2022-12-27T20:46:12.716Z,78.23
2022-12-27T20:48:41.929Z,78.15
2022-12-27T20:51:11.972Z,78.43
2022-12-27T20:53:39.510Z,78.45
2022-12-27T20:56:09.010Z,78.88
2022-12-27T20:58:36.486Z,78.30
2022-12-27T21:01:21.172Z,78.14
2022-12-27T21:03:48.802Z,77.49
2022-12-27T21:06:23.762Z,78.89
2022-12-27T21:08:56.597Z,77.98
2022-12-27T21:11:27.492Z,80.69
2022-12-27T21:13:55.715Z,78.65
2022-12-27T21:16:27.876Z,78.49
2022-12-27T21:18:56.527Z,79.44
2022-12-27T21:21:28.047Z,78.60
2022-12-27T21:23:58.162Z,77.36
2022-12-27T21:26:28.362Z,78.82
2022-12-27T21:28:56.244Z,79.00
2022-12-27T21:31:23.886Z,77.96
2022-12-27T21:33:51.265Z,77.48
2022-12-27T21:36:20.943Z,77.69
2022-12-27T21:38:49.135Z,76.65
2022-12-27T21:41:24.190Z,76.10
2022-12-27T21:43:52.139Z,77.15
2022-12-27T21:46:25.982Z,77.04
2022-12-27T21:48:55.972Z,78.23
2022-12-27T21:51:23.591Z,78.43
2022-12-27T21:53:51.172Z,76.36
2022-12-27T21:56:18.528Z,77.40
2022-12-27T21:58:46.122Z,76.48
2022-12-27T22:01:18.775Z,78.19
2022-12-27T22:03:48.287Z,77.90
2022-12-27T22:06:18.626Z,77.61
2022-12-27T22:08:51.093Z,78.03
2022-12-27T22:11:20.686Z,78.72
2022-12-27T22:13:48.149Z,77.16
2022-12-27T22:16:21.774Z,77.71
2022-12-27T22:18:50.766Z,77.89
2022-12-27T22:21:20.543Z,78.37
2022-12-27T22:23:50.183Z,77.89
2022-12-27T22:26:20.506Z,77.02
2022-12-27T22:28:48.167Z,78.43
2022-12-27T22:31:21.472Z,78.25
2022-12-27T22:33:50.235Z,79.22
2022-12-27T22:36:22.708Z,77.99
2022-12-27T22:38:50.859Z,77.82
2022-12-27T22:41:21.058Z,79.29
2022-12-27T22:43:54.484Z,79.22
2022-12-27T22:46:22.243Z,78.82
2022-12-27T22:48:55.454Z,79.38
2022-12-27T22:51:28.033Z,78.82
2022-12-27T22:53:56.535Z,79.66
2022-12-27T22:56:26.631Z,78.80
2022-12-27T22:58:54.028Z,79.91
2022-12-27T23:01:24.780Z,81.15
2022-12-27T23:03:52.149Z,79.86
2022-12-27T23:06:19.714Z,80.03
2022-12-27T23:08:47.788Z,77.69
2022-12-27T23:11:18.760Z,78.10
2022-12-27T23:13:47.032Z,78.83
2022-12-27T23:16:14.849Z,80.42
2022-12-27T23:18:42.307Z,80.04
2022-12-27T23:21:21.722Z,79.34
2022-12-27T23:23:52.309Z,80.51
2022-12-27T23:26:21.714Z,81.26
2022-12-27T23:28:50.301Z,79.86
2022-12-27T23:31:18.986Z,79.93
2022-12-27T23:33:46.712Z,81.44
2022-12-27T23:36:14.795Z,79.40
2022-12-27T23:38:42.669Z,80.65
2022-12-27T23:41:14.671Z,79.06
2022-12-27T23:43:52.089Z,79.61
2022-12-27T23:46:21.797Z,77.42
2022-12-27T23:48:50.921Z,78.04
2022-12-27T23:51:18.546Z,79.87
2022-12-27T23:53:45.928Z,79.54
2022-12-27T23:56:19.682Z,78.60
2022-12-27T23:58:47.547Z,80.22
